createdAt,value
2023-01-12T00:01:42.517Z,2.92
2023-01-12T00:04:12.622Z,2.47
2023-01-12T00:06:39.884Z,2.17
2023-01-12T00:09:07.558Z,1.85
2023-01-12T00:11:35.311Z,1.98
2023-01-12T00:14:02.535Z,1.58
2023-01-12T00:16:35.698Z,2.40
2023-01-12T00:19:10.905Z,2.10
2023-01-12T00:21:45.040Z,2.10
2023-01-12T00:24:13.830Z,3.00
2023-01-12T00:26:41.097Z,2.60
2023-01-12T00:29:08.411Z,2.78
2023-01-12T00:31:35.226Z,2.03
2023-01-12T00:34:02.506Z,2.35
2023-01-12T00:36:29.786Z,2.85
2023-01-12T00:38:57.074Z,3.53
2023-01-12T00:41:43.226Z,2.53
2023-01-12T00:44:28.993Z,2.87
2023-01-12T00:46:56.181Z,3.13
2023-01-12T00:49:23.404Z,2.80
2023-01-12T00:51:50.274Z,2.88
2023-01-12T00:54:17.690Z,2.88
2023-01-12T00:56:45.033Z,3.90
2023-01-12T00:59:12.298Z,3.25
2023-01-12T01:01:39.650Z,3.35
2023-01-12T01:04:07.034Z,3.53
2023-01-12T01:06:34.285Z,2.80
2023-01-12T01:09:01.553Z,3.53
2023-01-12T01:11:28.942Z,3.45
2023-01-12T01:13:56.145Z,3.85
2023-01-12T01:16:23.596Z,3.65
2023-01-12T01:18:50.848Z,3.78
2023-01-12T01:21:18.798Z,3.40
2023-01-12T01:23:46.264Z,4.18
2023-01-12T01:26:16.221Z,3.50
2023-01-12T01:28:43.899Z,3.85
2023-01-12T01:31:16.610Z,4.43
2023-01-12T01:33:44.074Z,5.47
2023-01-12T01:36:11.863Z,4.30
2023-01-12T01:38:39.394Z,3.45
2023-01-12T01:41:07.423Z,3.85
2023-01-12T01:43:54.202Z,4.35
2023-01-12T01:46:30.168Z,2.83
2023-01-12T01:49:02.957Z,4.65
2023-01-12T01:51:29.791Z,3.90
2023-01-12T01:53:57.108Z,3.80
2023-01-12T01:56:28.328Z,3.75
2023-01-12T01:59:18.550Z,3.37
2023-01-12T02:01:45.961Z,3.55
2023-01-12T02:04:14.128Z,2.95
2023-01-12T02:06:41.460Z,3.58
2023-01-12T02:09:21.217Z,3.50
2023-01-12T02:12:07.384Z,3.53
2023-01-12T02:14:53.245Z,4.00
2023-01-12T02:17:46.440Z,2.17
2023-01-12T02:20:22.142Z,2.67
2023-01-12T02:23:32.925Z,1.95
2023-01-12T02:26:36.892Z,2.00
2023-01-12T02:29:06.672Z,2.10
2023-01-12T02:32:06.474Z,2.47
2023-01-12T02:34:51.930Z,1.85
2023-01-12T02:37:19.326Z,1.88
2023-01-12T02:40:11.247Z,1.47
2023-01-12T02:43:02.638Z,1.55
2023-01-12T02:45:54.530Z,1.60
2023-01-12T02:48:30.500Z,1.80
2023-01-12T02:51:06.601Z,2.15
2023-01-12T02:53:43.486Z,1.90
2023-01-12T02:56:13.572Z,2.25
2023-01-12T02:58:45.583Z,2.42
2023-01-12T03:01:15.477Z,2.72
2023-01-12T03:03:42.971Z,2.05
2023-01-12T03:06:10.471Z,1.73
2023-01-12T03:08:40.016Z,1.77
2023-01-12T03:11:19.029Z,2.53
2023-01-12T03:13:54.195Z,1.90
2023-01-12T03:16:30.247Z,2.60
2023-01-12T03:19:17.991Z,3.13
2023-01-12T03:21:56.085Z,2.97
2023-01-12T03:24:30.352Z,2.85
2023-01-12T03:27:04.188Z,3.00
2023-01-12T03:29:36.289Z,3.95
2023-01-12T03:32:03.765Z,2.57
2023-01-12T03:34:32.039Z,3.45
2023-01-12T03:37:26.835Z,2.97
2023-01-12T03:39:54.086Z,2.55
2023-01-12T03:42:30.325Z,4.68
2023-01-12T03:45:20.146Z,3.40
2023-01-12T03:48:02.745Z,2.15
2023-01-12T03:50:38.629Z,1.73
2023-01-12T03:53:06.912Z,2.10
2023-01-12T03:55:35.467Z,2.50
2023-01-12T03:58:02.964Z,2.00
2023-01-12T04:00:30.542Z,1.90
2023-01-12T04:03:14.360Z,2.08
2023-01-12T04:05:42.842Z,1.85
2023-01-12T04:08:11.568Z,2.85
2023-01-12T04:10:38.962Z,2.07
2023-01-12T04:13:06.155Z,1.90
2023-01-12T04:15:37.962Z,1.60
2023-01-12T04:18:05.740Z,1.90
2023-01-12T04:20:33.102Z,2.28
2023-01-12T04:23:00.306Z,1.80
2023-01-12T04:25:27.793Z,2.33
2023-01-12T04:28:02.630Z,2.00
2023-01-12T04:30:32.138Z,1.55
2023-01-12T04:32:59.832Z,2.30
2023-01-12T04:35:27.698Z,2.27
2023-01-12T04:37:54.845Z,1.85
2023-01-12T04:40:22.281Z,2.47
2023-01-12T04:43:08.309Z,1.70
2023-01-12T04:45:39.796Z,1.65
2023-01-12T04:48:11.870Z,2.07
2023-01-12T04:50:39.821Z,2.13
2023-01-12T04:53:09.417Z,2.00
2023-01-12T04:55:38.332Z,1.98
2023-01-12T04:58:06.768Z,2.30
2023-01-12T05:00:33.826Z,1.63
2023-01-12T05:03:02.422Z,1.80
2023-01-12T05:05:31.771Z,2.30
2023-01-12T05:08:22.359Z,2.03
2023-01-12T05:10:54.421Z,2.25
2023-01-12T05:13:21.919Z,1.80
2023-01-12T05:15:49.165Z,1.77
2023-01-12T05:18:16.780Z,1.80
2023-01-12T05:20:44.006Z,1.83
2023-01-12T05:23:10.817Z,2.20
2023-01-12T05:25:38.042Z,1.83
2023-01-12T05:28:05.640Z,2.40
2023-01-12T05:30:32.860Z,1.73
2023-01-12T05:33:00.237Z,1.90
2023-01-12T05:35:27.084Z,1.70
2023-01-12T05:37:57.234Z,1.60
2023-01-12T05:40:24.731Z,2.05
2023-01-12T05:43:10.548Z,1.80
2023-01-12T05:45:37.797Z,1.70
2023-01-12T05:48:05.393Z,1.73
2023-01-12T05:50:32.759Z,2.00
2023-01-12T05:53:09.885Z,1.80
2023-01-12T05:55:38.909Z,1.75
2023-01-12T05:58:06.158Z,1.48
2023-01-12T06:00:33.217Z,1.88
2023-01-12T06:03:01.476Z,1.90
2023-01-12T06:05:28.939Z,1.90
2023-01-12T06:07:56.346Z,1.70
2023-01-12T06:10:23.116Z,1.60
2023-01-12T06:13:09.030Z,1.67
2023-01-12T06:15:36.289Z,2.27
2023-01-12T06:18:03.652Z,1.30
2023-01-12T06:20:30.532Z,1.50
2023-01-12T06:23:05.083Z,1.10
2023-01-12T06:25:32.517Z,1.50
2023-01-12T06:27:59.343Z,1.20
2023-01-12T06:30:26.598Z,1.40
2023-01-12T06:32:53.898Z,1.80
2023-01-12T06:35:21.151Z,1.30
2023-01-12T06:37:48.007Z,1.60
2023-01-12T06:40:15.817Z,1.40
2023-01-12T06:42:43.317Z,1.73
2023-01-12T06:45:10.880Z,1.73
2023-01-12T06:47:51.989Z,1.63
2023-01-12T06:50:19.389Z,1.30
2023-01-12T06:52:46.158Z,1.13
2023-01-12T06:55:13.392Z,1.35
2023-01-12T06:57:40.222Z,1.70
2023-01-12T07:00:12.738Z,1.20
2023-01-12T07:02:39.962Z,1.30
2023-01-12T07:05:07.039Z,1.43
2023-01-12T07:07:34.292Z,1.42
2023-01-12T07:10:01.613Z,1.35
2023-01-12T07:12:28.866Z,1.20
2023-01-12T07:14:58.925Z,1.55
2023-01-12T07:17:26.164Z,1.37
2023-01-12T07:19:53.407Z,1.50
2023-01-12T07:22:20.638Z,1.50
2023-01-12T07:24:47.898Z,1.55
2023-01-12T07:27:15.005Z,2.28
2023-01-12T07:29:42.265Z,1.53
2023-01-12T07:32:09.533Z,1.60
2023-01-12T07:34:36.772Z,1.48
2023-01-12T07:37:03.969Z,2.03
2023-01-12T07:39:31.240Z,1.90
2023-01-12T07:42:17.407Z,1.90
2023-01-12T07:44:44.964Z,1.52
2023-01-12T07:47:12.489Z,1.88
2023-01-12T07:49:39.435Z,1.80
2023-01-12T07:52:07.654Z,2.13
2023-01-12T07:54:35.988Z,1.70
2023-01-12T07:57:03.259Z,1.60
2023-01-12T07:59:30.541Z,2.13
2023-01-12T08:01:58.202Z,2.30
2023-01-12T08:04:25.122Z,2.33
2023-01-12T08:06:52.517Z,2.37
2023-01-12T08:09:19.748Z,2.10
2023-01-12T08:11:47.017Z,2.65
2023-01-12T08:14:30.402Z,1.73
2023-01-12T08:17:01.526Z,2.90
2023-01-12T08:19:38.769Z,1.80
2023-01-12T08:22:12.689Z,2.22
2023-01-12T08:24:45.051Z,2.28
2023-01-12T08:27:12.294Z,2.00
2023-01-12T08:29:45.337Z,2.50
2023-01-12T08:32:13.775Z,1.97
2023-01-12T08:34:43.212Z,1.85
2023-01-12T08:37:13.015Z,2.15
2023-01-12T08:39:40.541Z,2.40
2023-01-12T08:42:07.913Z,2.67
2023-01-12T08:44:36.022Z,1.90
2023-01-12T08:47:05.385Z,1.90
2023-01-12T08:49:34.094Z,2.00
2023-01-12T08:52:01.498Z,2.53
2023-01-12T08:54:28.644Z,1.90
2023-01-12T08:56:55.971Z,2.07
2023-01-12T08:59:23.249Z,2.10
2023-01-12T09:01:50.582Z,2.72
2023-01-12T09:04:17.865Z,1.63
2023-01-12T09:06:46.044Z,2.22
2023-01-12T09:09:19.910Z,2.03
2023-01-12T09:11:48.866Z,2.10
2023-01-12T09:14:16.732Z,2.20
2023-01-12T09:16:44.133Z,2.35
2023-01-12T09:19:11.555Z,1.90
2023-01-12T09:21:40.371Z,2.20
2023-01-12T09:24:07.863Z,2.75
2023-01-12T09:26:43.434Z,2.08
2023-01-12T09:29:12.330Z,2.35
2023-01-12T09:31:41.875Z,2.58
2023-01-12T09:34:09.508Z,2.73
2023-01-12T09:36:38.024Z,2.28
2023-01-12T09:39:06.048Z,2.58
2023-01-12T09:41:59.867Z,2.50
2023-01-12T09:44:54.911Z,2.50
2023-01-12T09:47:33.029Z,2.40
2023-01-12T09:50:09.886Z,2.22
2023-01-12T09:53:07.240Z,3.10
2023-01-12T09:56:04.613Z,3.17
2023-01-12T09:58:39.758Z,3.95
2023-01-12T10:01:24.249Z,3.90
2023-01-12T10:03:56.301Z,3.22
2023-01-12T10:06:23.182Z,3.63
2023-01-12T10:08:57.580Z,2.75
2023-01-12T10:11:33.194Z,2.55
2023-01-12T10:14:29.964Z,2.60
2023-01-12T10:17:11.584Z,1.80
2023-01-12T10:20:03.296Z,2.42
2023-01-12T10:22:38.791Z,2.25
2023-01-12T10:25:26.819Z,1.75
2023-01-12T10:27:56.849Z,2.40
2023-01-12T10:30:32.279Z,2.70
2023-01-12T10:33:29.307Z,2.75
2023-01-12T10:36:09.506Z,2.83
2023-01-12T10:38:52.800Z,2.85
2023-01-12T10:41:21.788Z,2.87
2023-01-12T10:44:00.503Z,2.65
2023-01-12T10:46:31.603Z,2.40
2023-01-12T10:49:20.751Z,2.70
2023-01-12T10:51:53.582Z,3.10
2023-01-12T10:54:27.238Z,3.20
2023-01-12T10:57:23.307Z,2.67
2023-01-12T11:00:02.688Z,2.20
2023-01-12T11:02:43.007Z,2.40
2023-01-12T11:05:39.461Z,2.22
2023-01-12T11:08:27.484Z,2.20
2023-01-12T11:10:54.909Z,2.47
2023-01-12T11:13:27.458Z,2.42
2023-01-12T11:16:13.843Z,2.00
2023-01-12T11:19:11.514Z,2.25
2023-01-12T11:21:41.745Z,2.37
2023-01-12T11:24:41.824Z,1.88
2023-01-12T11:27:22.479Z,2.28
2023-01-12T11:29:57.791Z,2.30
2023-01-12T11:32:27.629Z,2.30
2023-01-12T11:34:59.033Z,1.77
2023-01-12T11:37:26.325Z,2.53
2023-01-12T11:40:02.879Z,2.10
2023-01-12T11:42:49.818Z,1.85
2023-01-12T11:45:29.147Z,1.83
2023-01-12T11:48:02.410Z,1.73
2023-01-12T11:50:39.449Z,1.63
2023-01-12T11:53:07.493Z,1.67
2023-01-12T11:55:55.674Z,1.60
2023-01-12T11:58:53.723Z,1.80
2023-01-12T12:01:37.028Z,1.53
2023-01-12T12:04:26.873Z,1.67
2023-01-12T12:07:34.734Z,2.00
2023-01-12T12:10:31.013Z,2.10
2023-01-12T12:12:58.232Z,1.30
2023-01-12T12:15:48.604Z,1.70
2023-01-12T12:18:15.861Z,1.70
2023-01-12T12:20:43.092Z,1.73
2023-01-12T12:23:19.211Z,1.73
2023-01-12T12:26:06.864Z,1.90
2023-01-12T12:28:34.346Z,1.73
2023-01-12T12:31:37.946Z,1.80
2023-01-12T12:34:05.271Z,2.10
2023-01-12T12:36:56.663Z,1.75
2023-01-12T12:39:32.596Z,2.03
2023-01-12T12:42:43.136Z,1.90
2023-01-12T12:45:39.700Z,1.75
2023-01-12T12:48:15.704Z,1.70
2023-01-12T12:50:58.985Z,1.38
2023-01-12T12:53:29.873Z,1.70
2023-01-12T12:56:01.576Z,1.40
2023-01-12T12:58:49.461Z,1.50
2023-01-12T13:01:25.625Z,1.30
2023-01-12T13:04:00.545Z,1.30
2023-01-12T13:06:29.184Z,1.50
2023-01-12T13:09:01.560Z,1.93
2023-01-12T13:12:08.575Z,1.77
2023-01-12T13:14:43.574Z,1.42
2023-01-12T13:17:19.667Z,1.13
2023-01-12T13:20:24.174Z,1.70
2023-01-12T13:22:52.175Z,1.40
2023-01-12T13:25:19.535Z,1.65
2023-01-12T13:27:56.554Z,2.03
2023-01-12T13:30:23.923Z,1.35
2023-01-12T13:33:15.219Z,1.90
2023-01-12T13:35:46.224Z,1.80
2023-01-12T13:38:43.669Z,1.70
2023-01-12T13:41:13.681Z,2.00
2023-01-12T13:43:53.002Z,1.73
2023-01-12T13:46:41.674Z,1.70
2023-01-12T13:49:28.842Z,1.93
2023-01-12T13:52:00.730Z,2.08
2023-01-12T13:54:28.191Z,1.98
2023-01-12T13:57:10.627Z,1.77
2023-01-12T13:59:38.002Z,1.90
2023-01-12T14:02:05.332Z,1.60
2023-01-12T14:04:55.389Z,3.92
2023-01-12T14:07:31.380Z,1.85
2023-01-12T14:10:06.980Z,1.58
2023-01-12T14:13:08.240Z,1.80
2023-01-12T14:15:56.685Z,1.90
2023-01-12T14:18:44.383Z,1.63
2023-01-12T14:21:30.037Z,2.33
2023-01-12T14:24:29.241Z,2.00
2023-01-12T14:26:56.760Z,2.10
2023-01-12T14:29:23.969Z,1.53
2023-01-12T14:31:53.278Z,1.95
2023-01-12T14:34:35.236Z,1.45
2023-01-12T14:37:04.811Z,1.73
2023-01-12T14:39:40.872Z,1.42
2023-01-12T14:42:35.777Z,1.90
2023-01-12T14:45:22.166Z,1.90
2023-01-12T14:47:49.471Z,2.00
2023-01-12T14:50:19.302Z,2.22
2023-01-12T14:52:48.121Z,1.92
2023-01-12T14:55:15.400Z,1.50
2023-01-12T14:57:43.352Z,2.58
2023-01-12T15:00:24.281Z,2.28
2023-01-12T15:02:54.280Z,2.10
2023-01-12T15:05:27.065Z,2.03
2023-01-12T15:07:58.020Z,2.07
2023-01-12T15:10:37.223Z,2.13
2023-01-12T15:13:28.012Z,2.10
2023-01-12T15:16:15.906Z,2.10
2023-01-12T15:19:01.629Z,2.08
2023-01-12T15:22:04.677Z,1.60
2023-01-12T15:24:54.423Z,1.50
2023-01-12T15:27:23.155Z,2.20
2023-01-12T15:29:50.713Z,1.90
2023-01-12T15:32:22.417Z,1.90
2023-01-12T15:34:49.496Z,1.73
2023-01-12T15:37:18.695Z,1.85
2023-01-12T15:39:46.611Z,1.83
2023-01-12T15:42:18.161Z,2.35
2023-01-12T15:44:46.302Z,2.28
2023-01-12T15:47:14.625Z,1.87
2023-01-12T15:49:42.255Z,2.10
2023-01-12T15:52:18.273Z,2.15
2023-01-12T15:54:45.699Z,1.88
2023-01-12T15:57:14.396Z,2.30
2023-01-12T15:59:41.626Z,2.17
2023-01-12T16:02:31.646Z,1.92
2023-01-12T16:04:59.187Z,2.28
2023-01-12T16:07:26.566Z,2.33
2023-01-12T16:09:55.609Z,2.10
2023-01-12T16:12:23.295Z,2.27
2023-01-12T16:14:50.251Z,1.98
2023-01-12T16:17:17.664Z,2.17
2023-01-12T16:19:45.174Z,2.08
2023-01-12T16:22:17.820Z,2.42
2023-01-12T16:24:45.148Z,1.87
2023-01-12T16:27:12.668Z,2.20
2023-01-12T16:29:40.001Z,2.40
2023-01-12T16:32:07.400Z,2.90
2023-01-12T16:34:35.195Z,2.40
2023-01-12T16:37:02.630Z,2.50
2023-01-12T16:39:30.013Z,2.60
2023-01-12T16:42:03.533Z,2.78
2023-01-12T16:44:32.970Z,2.70
2023-01-12T16:47:00.291Z,2.35
2023-01-12T16:49:27.635Z,2.47
2023-01-12T16:51:55.258Z,2.20
2023-01-12T16:54:22.200Z,2.00
2023-01-12T16:56:49.279Z,1.80
2023-01-12T16:59:16.517Z,1.75
2023-01-12T17:01:43.884Z,2.10
2023-01-12T17:04:11.284Z,2.10
2023-01-12T17:06:40.149Z,2.20
2023-01-12T17:09:07.714Z,2.05
2023-01-12T17:11:35.303Z,2.70
2023-01-12T17:14:22.852Z,2.70
2023-01-12T17:16:58.796Z,2.35
2023-01-12T17:19:27.109Z,2.65
2023-01-12T17:21:58.189Z,2.53
2023-01-12T17:24:25.495Z,1.95
2023-01-12T17:26:53.756Z,2.23
2023-01-12T17:29:21.742Z,2.70
2023-01-12T17:31:49.578Z,2.05
2023-01-12T17:34:17.022Z,2.40
2023-01-12T17:36:44.086Z,2.25
2023-01-12T17:39:10.973Z,2.23
2023-01-12T17:41:56.714Z,1.80
2023-01-12T17:44:24.051Z,2.35
2023-01-12T17:46:51.314Z,2.42
2023-01-12T17:49:18.717Z,1.65
2023-01-12T17:51:45.970Z,2.70
2023-01-12T17:54:16.993Z,2.80
2023-01-12T17:56:44.381Z,3.20
2023-01-12T17:59:20.011Z,2.95
2023-01-12T18:01:47.951Z,3.90
2023-01-12T18:04:15.918Z,2.63
2023-01-12T18:06:43.276Z,3.97
2023-01-12T18:09:11.786Z,3.60
2023-01-12T18:11:39.502Z,3.42
2023-01-12T18:14:07.151Z,3.50
2023-01-12T18:16:34.852Z,2.83
2023-01-12T18:19:04.609Z,2.50
2023-01-12T18:21:32.128Z,2.35
2023-01-12T18:23:59.781Z,2.85
2023-01-12T18:26:29.246Z,3.13
2023-01-12T18:28:58.029Z,2.43
2023-01-12T18:31:28.596Z,2.92
2023-01-12T18:34:05.936Z,2.80
2023-01-12T18:36:38.097Z,3.42
2023-01-12T18:39:07.953Z,2.63
2023-01-12T18:41:54.786Z,3.30
2023-01-12T18:44:22.830Z,2.80
2023-01-12T18:47:08.270Z,3.30
2023-01-12T18:49:35.973Z,3.38
2023-01-12T18:52:22.781Z,3.08
2023-01-12T18:54:53.479Z,3.27
2023-01-12T18:57:23.137Z,2.42
2023-01-12T18:59:53.109Z,3.08
2023-01-12T19:02:20.916Z,2.65
2023-01-12T19:04:51.652Z,3.92
2023-01-12T19:07:43.571Z,3.70
2023-01-12T19:10:11.054Z,3.80
2023-01-12T19:12:38.284Z,3.35
2023-01-12T19:15:24.489Z,3.33
2023-01-12T19:17:51.316Z,3.83
2023-01-12T19:20:21.058Z,3.07
2023-01-12T19:23:07.162Z,2.65
2023-01-12T19:25:53.318Z,3.25
2023-01-12T19:28:32.846Z,3.67
2023-01-12T19:31:01.273Z,4.20
2023-01-12T19:33:28.980Z,3.37
2023-01-12T19:35:56.279Z,3.50
2023-01-12T19:38:23.654Z,3.85
2023-01-12T19:40:54.813Z,4.00
2023-01-12T19:43:26.245Z,3.08
2023-01-12T19:45:58.207Z,3.97
2023-01-12T19:48:26.675Z,4.10
2023-01-12T19:50:54.331Z,3.53
2023-01-12T19:53:25.831Z,2.42
2023-01-12T19:55:53.184Z,3.03
2023-01-12T19:58:22.201Z,3.50
2023-01-12T20:00:49.972Z,2.72
2023-01-12T20:03:19.349Z,3.35
2023-01-12T20:05:47.705Z,3.50
2023-01-12T20:08:15.286Z,2.40
2023-01-12T20:10:42.809Z,2.37
2023-01-12T20:13:12.874Z,2.20
2023-01-12T20:15:40.466Z,2.72
2023-01-12T20:18:08.863Z,2.70
2023-01-12T20:20:36.163Z,3.13
2023-01-12T20:23:03.197Z,3.33
2023-01-12T20:25:30.573Z,3.22
2023-01-12T20:27:57.957Z,3.80
2023-01-12T20:30:37.446Z,3.05
2023-01-12T20:33:06.191Z,2.55
2023-01-12T20:35:34.887Z,3.87
2023-01-12T20:38:04.229Z,3.63
2023-01-12T20:40:31.480Z,4.13
2023-01-12T20:42:58.420Z,3.05
2023-01-12T20:45:25.427Z,3.58
2023-01-12T20:47:52.712Z,2.60
2023-01-12T20:50:19.980Z,3.10
2023-01-12T20:52:52.627Z,3.88
2023-01-12T20:55:21.085Z,4.90
2023-01-12T20:57:49.101Z,2.85
2023-01-12T21:00:18.794Z,3.23
2023-01-12T21:02:46.186Z,2.50
2023-01-12T21:05:13.031Z,2.20
2023-01-12T21:07:40.277Z,2.38
2023-01-12T21:10:09.018Z,1.70
2023-01-12T21:12:36.365Z,1.70
2023-01-12T21:15:03.662Z,1.58
2023-01-12T21:17:31.674Z,1.50
2023-01-12T21:19:58.954Z,1.10
2023-01-12T21:22:26.242Z,1.40
2023-01-12T21:24:53.540Z,1.20
2023-01-12T21:27:20.818Z,1.30
2023-01-12T21:29:48.088Z,1.65
2023-01-12T21:32:15.521Z,1.40
2023-01-12T21:34:42.863Z,2.00
2023-01-12T21:37:10.285Z,2.00
2023-01-12T21:39:37.521Z,1.90
2023-01-12T21:42:23.394Z,1.90
2023-01-12T21:44:50.628Z,2.22
2023-01-12T21:47:17.926Z,2.63
2023-01-12T21:49:44.736Z,2.40
2023-01-12T21:52:12.152Z,2.45
2023-01-12T21:54:39.426Z,2.30
2023-01-12T21:57:06.778Z,2.30
2023-01-12T21:59:34.125Z,2.40
2023-01-12T22:02:01.788Z,2.43
2023-01-12T22:04:29.357Z,2.20
2023-01-12T22:06:56.560Z,2.50
2023-01-12T22:09:24.031Z,2.75
2023-01-12T22:11:50.982Z,2.28
2023-01-12T22:14:18.012Z,2.83
2023-01-12T22:16:45.495Z,2.38
2023-01-12T22:19:12.839Z,2.53
2023-01-12T22:21:40.908Z,3.10
2023-01-12T22:24:08.010Z,3.10
2023-01-12T22:26:35.194Z,2.70
2023-01-12T22:29:02.910Z,2.28
2023-01-12T22:31:30.425Z,3.80
2023-01-12T22:34:02.610Z,2.90
2023-01-12T22:36:33.927Z,2.15
2023-01-12T22:39:02.039Z,2.77
2023-01-12T22:41:29.233Z,2.83
2023-01-12T22:43:56.459Z,3.75
2023-01-12T22:46:25.305Z,2.30
2023-01-12T22:48:55.291Z,3.22
2023-01-12T22:51:26.823Z,3.93
2023-01-12T22:53:55.710Z,2.22
2023-01-12T22:56:23.089Z,2.85
2023-01-12T22:58:52.237Z,2.42
2023-01-12T23:01:20.505Z,2.63
2023-01-12T23:03:48.576Z,3.30
2023-01-12T23:06:17.714Z,2.65
2023-01-12T23:08:45.293Z,3.05
2023-01-12T23:11:15.848Z,2.00
2023-01-12T23:13:44.518Z,2.45
2023-01-12T23:16:13.633Z,2.90
2023-01-12T23:18:42.276Z,2.78
2023-01-12T23:21:15.448Z,3.30
2023-01-12T23:23:50.275Z,2.30
2023-01-12T23:26:22.704Z,3.28
2023-01-12T23:28:56.013Z,3.60
2023-01-12T23:31:25.882Z,3.03
2023-01-12T23:33:53.361Z,2.55
2023-01-12T23:36:22.842Z,3.20
2023-01-12T23:39:00.654Z,3.80
2023-01-12T23:41:29.383Z,3.63
2023-01-12T23:43:59.205Z,2.70
2023-01-12T23:46:27.087Z,3.33
2023-01-12T23:48:56.145Z,2.85
2023-01-12T23:51:24.333Z,4.05
2023-01-12T23:53:59.535Z,3.77
2023-01-12T23:56:28.631Z,3.70
2023-01-12T23:58:56.072Z,3.58
